Time;durP1;ratioP1;P1;durP2;ratioP2;P2;SDS_P1;SDS_P2;PMS_P1;PMS_P2;Temp;Humidity;BMP_temperature;BMP_pressure;BME280_temperature;BME280_humidity;BME280_pressure;Samples;Min_cycle;Max_cycle;Signal;HPM_P1;HPM_P2
2022/11/25 00:01:10;;;;;;;3.47;1.23;;;10.60;99.90;;;;;;5030427;28;19991;-81
2022/11/25 00:03:37;;;;;;;0.47;0.47;;;10.60;99.90;;;;;;5045975;28;20267;-81
2022/11/25 00:06:11;;;;;;;5.18;1.73;;;10.60;99.90;;;;;;5060251;28;20122;-82
2022/11/25 00:08:37;;;;;;;0.22;0.22;;;10.60;99.90;;;;;;5058393;28;20856;-82
2022/11/25 00:11:04;;;;;;;17.73;1.10;;;10.60;99.90;;;;;;5031846;28;20069;-82
2022/11/25 00:13:30;;;;;;;;;;;10.60;99.90;;;;;;5032134;28;20264;-81
2022/11/25 00:16:00;;;;;;;2.08;0.70;;;10.60;99.90;;;;;;5038633;28;19962;-81
2022/11/25 00:18:25;;;;;;;0.20;0.20;;;10.60;99.90;;;;;;5054852;28;20119;-81
2022/11/25 00:20:51;;;;;;;0.32;0.32;;;10.60;99.90;;;;;;5053196;28;20111;-84
2022/11/25 00:23:17;;;;;;;0.10;0.10;;;10.60;99.90;;;;;;5033805;28;20053;-83
2022/11/25 00:25:42;;;;;;;0.20;0.20;;;10.60;99.90;;;;;;5053785;28;20076;-83
2022/11/25 00:28:08;;;;;;;0.38;0.20;;;10.60;99.90;;;;;;5056867;28;20040;-82
2022/11/25 00:30:34;;;;;;;0.43;0.40;;;10.60;99.90;;;;;;5048747;28;20079;-82
2022/11/25 00:32:59;;;;;;;0.93;0.90;;;10.60;99.90;;;;;;5049553;28;20033;-82
2022/11/25 00:35:25;;;;;;;0.30;0.30;;;10.60;99.90;;;;;;5052268;28;20043;-84
2022/11/25 00:37:51;;;;;;;0.10;0.10;;;10.60;99.90;;;;;;5051557;28;20040;-83
2022/11/25 00:40:16;;;;;;;0.32;0.32;;;10.60;99.90;;;;;;5049231;28;20037;-85
2022/11/25 00:45:26;;;;;;;0.10;0.10;;;10.50;99.90;;;;;;5049098;28;20071;-85
2022/11/25 00:47:52;;;;;;;0.10;0.10;;;10.50;99.90;;;;;;5052479;28;20025;-83
2022/11/25 00:50:18;;;;;;;13.40;0.60;;;10.50;99.90;;;;;;5048477;28;20029;-82
2022/11/25 00:52:43;;;;;;;2.33;0.77;;;10.60;99.90;;;;;;5049144;28;20601;-82
2022/11/25 00:55:09;;;;;;;0.10;0.10;;;10.50;99.90;;;;;;5047005;28;20045;-83
2022/11/25 00:57:35;;;;;;;0.52;0.52;;;10.50;99.90;;;;;;5053203;28;20051;-83
2022/11/25 01:00:00;;;;;;;0.10;0.10;;;10.40;99.90;;;;;;5048926;28;20612;-82
2022/11/25 01:02:26;;;;;;;0.10;0.10;;;10.30;99.90;;;;;;5048806;28;20090;-82
2022/11/25 01:04:52;;;;;;;0.20;0.20;;;10.30;99.90;;;;;;5035836;28;20250;-82
2022/11/25 01:07:18;;;;;;;0.10;0.10;;;10.30;99.90;;;;;;5042155;28;20095;-82
2022/11/25 01:09:44;;;;;;;0.10;0.10;;;10.20;99.90;;;;;;5030619;28;20945;-83
2022/11/25 01:12:10;;;;;;;0.10;0.10;;;10.20;99.90;;;;;;5049784;28;20606;-82
2022/11/25 01:14:35;;;;;;;0.57;0.55;;;10.20;99.90;;;;;;5029459;28;20048;-82
2022/11/25 01:17:01;;;;;;;2.90;1.83;;;10.20;99.90;;;;;;5045431;28;20040;-82
2022/11/25 01:19:27;;;;;;;0.10;0.10;;;10.00;99.90;;;;;;5048898;28;20033;-82
2022/11/25 01:21:53;;;;;;;2.30;0.77;;;9.90;99.90;;;;;;5060603;28;20587;-83
2022/11/25 01:24:18;;;;;;;0.30;0.30;;;9.90;99.90;;;;;;5052495;28;20175;-82
2022/11/25 01:26:44;;;;;;;0.40;0.40;;;9.80;99.90;;;;;;5029424;28;20460;-81
2022/11/25 01:29:15;;;;;;;3.25;0.98;;;9.80;99.90;;;;;;5051669;28;20064;-81
2022/11/25 01:31:41;;;;;;;0.30;0.30;;;9.80;99.90;;;;;;5030371;28;20091;-81
2022/11/25 01:34:20;;;;;;;0.40;0.35;;;9.80;99.90;;;;;;5047812;28;20033;-81
2022/11/25 01:36:46;;;;;;;0.57;0.57;;;9.70;99.90;;;;;;5050640;28;20033;-80
2022/11/25 01:39:19;;;;;;;2.53;0.37;;;9.80;99.90;;;;;;5050420;28;20056;-80
2022/11/25 01:41:45;;;;;;;1.90;1.75;;;9.80;99.90;;;;;;5061627;28;20041;-81
2022/11/25 01:44:24;;;;;;;0.30;0.30;;;9.80;99.90;;;;;;5051490;28;20625;-81
2022/11/25 01:47:11;;;;;;;0.10;0.10;;;9.90;99.90;;;;;;5030980;28;20101;-81
2022/11/25 01:49:54;;;;;;;0.20;0.20;;;10.00;99.90;;;;;;5042221;28;20037;-81
2022/11/25 01:52:28;;;;;;;0.30;0.30;;;10.00;99.90;;;;;;5046225;28;20029;-81
2022/11/25 01:54:59;;;;;;;33.17;1.33;;;10.00;99.90;;;;;;5044652;28;20049;-81
2022/11/25 01:57:49;;;;;;;0.10;0.10;;;10.10;99.90;;;;;;5048738;28;20029;-82
2022/11/25 02:00:16;;;;;;;0.30;0.30;;;10.10;99.90;;;;;;5025946;28;20024;-80
2022/11/25 02:02:42;;;;;;;0.35;0.35;;;10.10;99.90;;;;;;5047187;28;20048;-81
2022/11/25 02:05:12;;;;;;;0.50;0.50;;;10.20;99.90;;;;;;5047088;28;20174;-80
2022/11/25 02:07:42;;;;;;;0.30;0.30;;;10.20;99.90;;;;;;5032931;28;20284;-81
2022/11/25 02:10:12;;;;;;;0.10;0.10;;;10.20;99.90;;;;;;5030933;28;20104;-81
2022/11/25 02:12:40;;;;;;;0.30;0.30;;;10.20;99.90;;;;;;5046618;28;20029;-81
2022/11/25 02:15:07;;;;;;;1.10;0.52;;;10.10;99.90;;;;;;5029098;28;20040;-81
2022/11/25 02:17:33;;;;;;;0.20;0.20;;;10.10;99.90;;;;;;5029020;28;20086;-81
2022/11/25 02:20:07;;;;;;;7.82;0.70;;;10.10;99.90;;;;;;5029165;28;20456;-83
2022/11/25 02:22:36;;;;;;;0.38;0.35;;;10.00;99.90;;;;;;5043996;28;20033;-83
2022/11/25 02:25:15;;;;;;;12.55;1.70;;;10.00;99.90;;;;;;5048430;28;20079;-82
2022/11/25 02:27:43;;;;;;;0.10;0.10;;;10.10;99.90;;;;;;5047338;28;20029;-83
2022/11/25 02:30:09;;;;;;;0.50;0.50;;;10.00;99.90;;;;;;5046613;28;20048;-85
2022/11/25 02:32:34;;;;;;;0.95;0.95;;;10.00;99.90;;;;;;5030039;28;20029;-83
2022/11/25 02:35:00;;;;;;;0.85;0.63;;;10.00;99.90;;;;;;5047405;28;20110;-83
2022/11/25 02:37:27;;;;;;;1.17;0.57;;;9.90;99.90;;;;;;5031355;28;20029;-82
2022/11/25 02:39:53;;;;;;;;;;;10.00;99.90;;;;;;5046899;28;20039;-81
2022/11/25 02:42:21;;;;;;;3.65;0.85;;;9.90;99.90;;;;;;5050676;28;19913;-82
2022/11/25 02:44:48;;;;;;;1.98;0.85;;;10.00;99.90;;;;;;5029157;28;20072;-81
2022/11/25 02:47:14;;;;;;;0.45;0.25;;;10.00;99.90;;;;;;5045654;28;20109;-81
2022/11/25 02:49:40;;;;;;;0.10;0.10;;;10.10;99.90;;;;;;5027455;28;20025;-81
2022/11/25 02:52:05;;;;;;;1.20;0.73;;;9.90;99.90;;;;;;5047793;28;20120;-84
2022/11/25 02:54:31;;;;;;;0.10;0.10;;;10.10;99.90;;;;;;5048411;28;20052;-82
2022/11/25 02:56:57;;;;;;;0.10;0.10;;;10.20;99.90;;;;;;5033335;28;20021;-81
2022/11/25 02:59:22;;;;;;;2.45;1.38;;;10.10;99.90;;;;;;5048869;28;20661;-81
2022/11/25 03:01:48;;;;;;;0.10;0.10;;;10.10;99.90;;;;;;5037492;28;20033;-81
2022/11/25 03:04:14;;;;;;;0.10;0.10;;;10.20;99.90;;;;;;5049967;28;20737;-82
2022/11/25 03:06:39;;;;;;;0.85;0.73;;;10.20;99.90;;;;;;5051402;28;21252;-82
2022/11/25 03:09:05;;;;;;;5.88;2.33;;;10.20;99.90;;;;;;5050122;28;20039;-81
2022/11/25 03:14:15;;;;;;;0.20;0.20;;;10.20;99.90;;;;;;5054075;28;20056;-80
2022/11/25 03:16:40;;;;;;;0.50;0.50;;;10.20;99.90;;;;;;5038230;28;20021;-81
2022/11/25 03:19:07;;;;;;;0.40;0.40;;;10.20;99.90;;;;;;5035008;28;20055;-82
2022/11/25 03:21:32;;;;;;;0.55;0.55;;;10.20;99.90;;;;;;5034940;28;20174;-81
2022/11/25 03:23:58;;;;;;;0.10;0.10;;;10.20;99.90;;;;;;5050207;28;20119;-82
2022/11/25 03:26:25;;;;;;;0.30;0.30;;;10.30;99.90;;;;;;5053658;28;20028;-83
2022/11/25 03:28:50;;;;;;;0.13;0.13;;;10.30;99.90;;;;;;5049466;28;20101;-82
2022/11/25 03:31:16;;;;;;;0.98;0.80;;;10.30;99.90;;;;;;5062562;28;20032;-83
2022/11/25 03:33:41;;;;;;;0.60;0.60;;;10.30;99.90;;;;;;5050969;28;20032;-83
2022/11/25 03:36:07;;;;;;;0.30;0.30;;;10.20;99.90;;;;;;5051938;28;20028;-82
2022/11/25 03:38:33;;;;;;;0.40;0.40;;;10.20;99.90;;;;;;5054360;28;20032;-82
2022/11/25 03:40:59;;;;;;;0.10;0.10;;;10.20;99.90;;;;;;5053414;28;20028;-81
2022/11/25 03:43:24;;;;;;;1.10;1.00;;;10.20;99.90;;;;;;5032937;28;20037;-80
2022/11/25 03:45:50;;;;;;;0.57;0.57;;;10.30;99.90;;;;;;5050645;28;20039;-81
2022/11/25 03:48:15;;;;;;;0.10;0.10;;;10.20;99.90;;;;;;5045363;28;20519;-81
2022/11/25 03:50:41;;;;;;;0.22;0.22;;;10.20;99.90;;;;;;5049165;28;20032;-81
2022/11/25 03:53:07;;;;;;;0.20;0.20;;;10.20;99.90;;;;;;5052705;28;20110;-81
2022/11/25 03:55:33;;;;;;;0.13;0.13;;;10.10;99.90;;;;;;5053793;28;20047;-80
2022/11/25 03:57:59;;;;;;;0.20;0.20;;;10.20;99.90;;;;;;5050992;28;20094;-81
2022/11/25 04:00:25;;;;;;;20.67;1.10;;;10.20;99.90;;;;;;5032138;28;20119;-81
2022/11/25 04:02:50;;;;;;;0.32;0.32;;;10.20;99.90;;;;;;5043019;28;20081;-82
2022/11/25 04:05:16;;;;;;;0.28;0.28;;;10.20;99.90;;;;;;5047609;28;20029;-81
2022/11/25 04:07:42;;;;;;;0.10;0.10;;;10.20;99.90;;;;;;5048617;28;20559;-82
2022/11/25 04:10:08;;;;;;;0.17;0.17;;;10.20;99.90;;;;;;5049087;28;20025;-81
2022/11/25 04:12:46;;;;;;;0.73;0.73;;;10.20;99.90;;;;;;5048393;28;20029;-81
2022/11/25 04:15:16;;;;;;;0.68;0.60;;;10.30;99.90;;;;;;5044582;28;20084;-82
2022/11/25 04:17:41;;;;;;;0.68;0.30;;;10.20;99.90;;;;;;5052236;28;20615;-80
2022/11/25 04:20:08;;;;;;;0.10;0.10;;;10.30;99.90;;;;;;5049849;28;20646;-82
2022/11/25 04:22:34;;;;;;;0.55;0.35;;;10.30;99.90;;;;;;5052287;28;20025;-80
2022/11/25 04:25:00;;;;;;;0.22;0.22;;;10.20;99.90;;;;;;5049066;28;20086;-80
2022/11/25 04:27:26;;;;;;;1.98;1.20;;;10.20;99.90;;;;;;5053207;28;20056;-81
2022/11/25 04:29:51;;;;;;;1.10;1.05;;;10.10;99.90;;;;;;5061329;28;20080;-81
2022/11/25 04:32:17;;;;;;;1.42;1.33;;;10.20;99.90;;;;;;5051862;28;20025;-82
2022/11/25 04:34:43;;;;;;;9.33;0.97;;;10.30;99.90;;;;;;5053658;28;20036;-81
2022/11/25 04:37:09;;;;;;;0.63;0.63;;;10.30;99.90;;;;;;5032988;28;20037;-82
2022/11/25 04:39:34;;;;;;;1.52;1.10;;;10.20;99.90;;;;;;5047496;28;20139;-81
2022/11/25 04:44:44;;;;;;;0.85;0.85;;;10.30;99.90;;;;;;5047014;28;20055;-81
2022/11/25 04:47:10;;;;;;;0.57;0.57;;;10.20;99.90;;;;;;5049769;28;20088;-80
2022/11/25 04:49:35;;;;;;;0.30;0.30;;;10.20;99.90;;;;;;5047980;28;20086;-80
2022/11/25 04:52:01;;;;;;;0.10;0.10;;;10.20;99.90;;;;;;5031666;28;20555;-82
2022/11/25 04:54:27;;;;;;;0.10;0.10;;;10.30;99.90;;;;;;5049021;28;20076;-82
2022/11/25 04:56:52;;;;;;;8.43;0.60;;;10.30;99.90;;;;;;5033752;28;20503;-80
2022/11/25 05:02:02;;;;;;;0.32;0.32;;;10.30;99.90;;;;;;5053124;28;20059;-80
2022/11/25 05:04:28;;;;;;;0.40;0.40;;;10.30;99.90;;;;;;5047832;28;20033;-80
2022/11/25 05:06:54;;;;;;;0.20;0.20;;;10.20;99.90;;;;;;5050994;28;20024;-81
2022/11/25 05:09:19;;;;;;;0.10;0.10;;;10.10;99.90;;;;;;5053351;28;20037;-81
2022/11/25 05:11:45;;;;;;;0.30;0.30;;;10.20;99.90;;;;;;5049975;28;20103;-84
2022/11/25 05:14:11;;;;;;;0.22;0.22;;;10.10;99.90;;;;;;5047712;28;20052;-84
2022/11/25 05:16:36;;;;;;;0.20;0.20;;;10.10;99.90;;;;;;5050125;28;20539;-82
2022/11/25 05:19:02;;;;;;;0.70;0.70;;;10.10;99.90;;;;;;5032141;28;20681;-83
2022/11/25 05:21:28;;;;;;;0.13;0.13;;;10.00;99.90;;;;;;5051166;28;20404;-83
2022/11/25 05:23:54;;;;;;;0.10;0.10;;;10.00;99.90;;;;;;5031116;28;20029;-82
2022/11/25 05:26:19;;;;;;;1.30;1.20;;;10.10;99.90;;;;;;5035114;28;20175;-83
2022/11/25 05:28:45;;;;;;;0.77;0.47;;;10.00;99.90;;;;;;5050820;28;20089;-83
2022/11/25 05:31:11;;;;;;;0.73;0.73;;;10.00;99.90;;;;;;5049507;28;20032;-83
2022/11/25 05:33:37;;;;;;;0.55;0.55;;;10.10;99.90;;;;;;5033256;28;20851;-83
2022/11/25 05:36:03;;;;;;;0.10;0.10;;;10.10;99.90;;;;;;5051647;28;20021;-81
2022/11/25 05:38:29;;;;;;;0.10;0.10;;;10.10;99.90;;;;;;5049617;28;20036;-83
2022/11/25 05:41:06;;;;;;;0.77;0.55;;;10.10;99.90;;;;;;5031105;28;20033;-82
2022/11/25 05:43:32;;;;;;;;;;;10.10;99.90;;;;;;5046333;28;20114;-82
2022/11/25 05:45:58;;;;;;;0.10;0.10;;;10.00;99.90;;;;;;5054991;28;19912;-82
2022/11/25 05:48:23;;;;;;;2.90;1.77;;;10.00;99.90;;;;;;5052004;28;20043;-82
2022/11/25 05:50:49;;;;;;;1.02;1.02;;;10.00;99.90;;;;;;5046378;28;20035;-80
2022/11/25 05:53:16;;;;;;;0.30;0.30;;;10.00;99.90;;;;;;5048610;28;20029;-80
2022/11/25 05:55:52;;;;;;;0.28;0.28;;;10.00;99.90;;;;;;5031569;28;20598;-85
2022/11/25 05:58:18;;;;;;;0.20;0.20;;;9.80;99.90;;;;;;5047151;28;20120;-85
2022/11/25 06:00:43;;;;;;;0.80;0.80;;;9.90;99.90;;;;;;5046486;28;20128;-82
2022/11/25 06:03:09;;;;;;;1.20;1.10;;;9.90;99.90;;;;;;5045798;28;20045;-83
2022/11/25 06:05:35;;;;;;;0.20;0.20;;;9.90;99.90;;;;;;5047204;28;20032;-86
2022/11/25 06:08:00;;;;;;;0.47;0.47;;;9.90;99.90;;;;;;5044891;28;20124;-85
2022/11/25 06:10:26;;;;;;;0.10;0.10;;;9.90;99.90;;;;;;5028125;28;20120;-85
2022/11/25 06:12:52;;;;;;;0.10;0.10;;;9.90;99.90;;;;;;5050403;28;20040;-85
2022/11/25 06:15:18;;;;;;;14.68;1.33;;;9.90;99.90;;;;;;5051944;28;21152;-87
2022/11/25 06:17:43;;;;;;;0.20;0.20;;;9.90;99.90;;;;;;5035129;28;20044;-85
2022/11/25 06:20:10;;;;;;;1.02;0.95;;;9.90;99.90;;;;;;5048996;28;20444;-84
2022/11/25 06:22:35;;;;;;;0.20;0.20;;;9.90;99.90;;;;;;5047550;28;20025;-85
2022/11/25 06:25:01;;;;;;;0.10;0.10;;;9.90;99.90;;;;;;5028892;28;20032;-84
2022/11/25 06:27:27;;;;;;;0.30;0.30;;;9.90;99.90;;;;;;5032431;28;20118;-84
2022/11/25 06:29:53;;;;;;;0.10;0.10;;;9.80;99.90;;;;;;5031518;28;20029;-86
2022/11/25 06:32:18;;;;;;;0.22;0.22;;;9.90;99.90;;;;;;5025633;28;20063;-83
2022/11/25 06:34:44;;;;;;;0.28;0.28;;;9.90;99.90;;;;;;5028472;28;20052;-82
2022/11/25 06:37:10;;;;;;;0.30;0.30;;;9.90;99.90;;;;;;5047392;28;20029;-84
2022/11/25 06:39:35;;;;;;;1.85;1.17;;;9.90;99.90;;;;;;5030502;28;20051;-83
2022/11/25 06:42:01;;;;;;;0.10;0.10;;;9.90;99.90;;;;;;5047473;28;20029;-86
2022/11/25 06:44:27;;;;;;;0.30;0.30;;;9.90;99.90;;;;;;5047247;28;20021;-86
2022/11/25 06:46:53;;;;;;;1.23;0.73;;;10.00;99.90;;;;;;5025302;28;20038;-89
2022/11/25 06:49:18;;;;;;;0.85;0.82;;;10.00;99.90;;;;;;5028339;28;20147;-87
2022/11/25 06:51:44;;;;;;;0.30;0.30;;;10.00;99.90;;;;;;5025890;28;20037;-86
2022/11/25 06:54:10;;;;;;;0.10;0.10;;;10.00;99.90;;;;;;5045531;28;20025;-86
2022/11/25 06:56:36;;;;;;;9.07;4.20;;;10.00;99.90;;;;;;5046462;28;20025;-88
2022/11/25 06:59:02;;;;;;;3.38;2.80;;;9.90;99.90;;;;;;5031810;28;20021;-90
2022/11/25 07:01:29;;;;;;;2.75;2.35;;;9.90;99.90;;;;;;5031502;28;20170;-87
2022/11/25 07:04:02;;;;;;;0.60;0.60;;;9.90;99.90;;;;;;5054059;28;20139;-90
2022/11/25 07:06:28;;;;;;;3.10;2.90;;;10.00;99.90;;;;;;5040324;28;20044;-87
2022/11/25 07:08:55;;;;;;;0.50;0.50;;;9.80;99.90;;;;;;5032069;28;20033;-87
2022/11/25 07:11:25;;;;;;;2.42;2.25;;;9.90;99.90;;;;;;5056486;28;20033;-85
2022/11/25 07:13:53;;;;;;;1.23;1.23;;;9.90;99.90;;;;;;5029389;28;20033;-84
2022/11/25 07:16:18;;;;;;;1.45;1.35;;;9.90;99.90;;;;;;5047394;28;20037;-85
2022/11/25 07:18:44;;;;;;;1.23;1.02;;;9.90;99.90;;;;;;5029080;28;20022;-82
2022/11/25 07:21:15;;;;;;;0.30;0.30;;;10.00;99.90;;;;;;5046910;28;20029;-82
2022/11/25 07:23:43;;;;;;;1.25;1.15;;;9.70;99.90;;;;;;5049214;28;20103;-83
2022/11/25 07:26:13;;;;;;;3.95;0.80;;;9.60;99.90;;;;;;5053687;28;20037;-83
2022/11/25 07:28:40;;;;;;;0.60;0.60;;;9.60;99.90;;;;;;5047017;28;20032;-86
2022/11/25 07:31:27;;;;;;;0.13;0.13;;;9.60;99.90;;;;;;5046455;28;20078;-85
2022/11/25 07:33:55;;;;;;;1.08;0.85;;;9.70;99.90;;;;;;5046389;28;20025;-87
2022/11/25 07:36:21;;;;;;;8.50;5.30;;;9.60;99.90;;;;;;5042377;28;20039;-87
2022/11/25 07:38:47;;;;;;;10.45;4.95;;;9.60;99.90;;;;;;5052735;28;20576;-86
2022/11/25 07:41:21;;;;;;;10.82;6.78;;;9.60;99.90;;;;;;5047059;28;20519;-87
2022/11/25 07:43:52;;;;;;;8.10;3.67;;;9.50;99.90;;;;;;5051501;28;20032;-91
2022/11/25 07:46:25;;;;;;;0.82;0.82;;;9.60;99.90;;;;;;5035137;28;20106;-92
2022/11/25 07:48:53;;;;;;;5.88;3.75;;;9.60;99.90;;;;;;5035078;28;20488;-91
2022/11/25 07:51:24;;;;;;;4.05;2.90;;;9.60;99.90;;;;;;5034541;28;20561;-87
2022/11/25 07:53:53;;;;;;;5.28;2.85;;;9.70;99.90;;;;;;5028851;28;20021;-87
2022/11/25 07:56:19;;;;;;;5.95;1.67;;;9.60;99.90;;;;;;5049358;28;20626;-87
2022/11/25 07:58:45;;;;;;;2.88;2.03;;;9.60;99.90;;;;;;5032006;28;20534;-88
2022/11/25 08:01:13;;;;;;;0.75;0.75;;;9.50;99.90;;;;;;5031400;28;20487;-87
2022/11/25 08:03:40;;;;;;;2.20;0.93;;;9.60;99.90;;;;;;5031650;28;20033;-88
2022/11/25 08:06:09;;;;;;;3.15;2.35;;;9.60;99.90;;;;;;5062040;28;20054;-87
2022/11/25 08:08:36;;;;;;;2.40;1.30;;;9.50;99.90;;;;;;5028953;28;20037;-88
2022/11/25 08:11:08;;;;;;;1.15;1.05;;;9.50;99.90;;;;;;5028341;28;20119;-87
2022/11/25 08:13:34;;;;;;;2.35;1.42;;;9.50;99.90;;;;;;5028883;28;20037;-88
2022/11/25 08:16:00;;;;;;;0.23;0.23;;;9.40;99.90;;;;;;5050069;28;20033;-88
2022/11/25 08:18:26;;;;;;;0.93;0.88;;;9.60;99.90;;;;;;5031255;28;20273;-88
2022/11/25 08:20:57;;;;;;;2.42;1.15;;;9.50;99.90;;;;;;5027915;28;20082;-88
2022/11/25 08:23:22;;;;;;;0.63;0.63;;;9.60;99.90;;;;;;5049813;28;20033;-88
2022/11/25 08:25:48;;;;;;;1.30;1.27;;;9.60;99.90;;;;;;5059359;28;20036;-88
2022/11/25 08:28:13;;;;;;;6.13;1.90;;;9.70;99.90;;;;;;5049835;28;20040;-87
2022/11/25 08:30:39;;;;;;;2.22;1.77;;;9.60;99.90;;;;;;5065019;28;20033;-87
2022/11/25 08:33:06;;;;;;;1.17;1.15;;;9.60;99.90;;;;;;5049623;28;20029;-88
2022/11/25 08:35:36;;;;;;;0.95;0.93;;;9.70;99.90;;;;;;5049770;28;20021;-88
2022/11/25 08:38:04;;;;;;;0.13;0.13;;;9.70;99.90;;;;;;5050947;28;20052;-88
2022/11/25 08:40:31;;;;;;;1.58;1.48;;;9.70;99.90;;;;;;5030919;28;20025;-87
2022/11/25 08:42:56;;;;;;;0.68;0.68;;;9.70;99.90;;;;;;5049309;28;20111;-88
2022/11/25 08:45:22;;;;;;;1.17;1.17;;;9.70;99.90;;;;;;5049507;28;20116;-88
2022/11/25 08:47:48;;;;;;;2.00;1.42;;;9.60;99.90;;;;;;5048994;28;20029;-87
2022/11/25 08:50:14;;;;;;;0.40;0.40;;;9.60;99.90;;;;;;5049272;28;20025;-88
2022/11/25 08:52:40;;;;;;;0.13;0.13;;;9.70;99.90;;;;;;5063355;28;20040;-88
2022/11/25 08:55:06;;;;;;;0.77;0.77;;;9.80;99.90;;;;;;5040357;28;20831;-88
2022/11/25 08:57:33;;;;;;;0.10;0.10;;;9.80;99.90;;;;;;5033450;28;20570;-89
2022/11/25 08:59:59;;;;;;;0.43;0.43;;;9.80;99.90;;;;;;5032266;28;20060;-87
2022/11/25 09:02:25;;;;;;;0.10;0.10;;;9.90;99.90;;;;;;5030927;28;20304;-87
2022/11/25 09:04:51;;;;;;;0.10;0.10;;;10.00;99.90;;;;;;5033880;28;20029;-88
2022/11/25 09:07:16;;;;;;;0.40;0.40;;;10.10;99.90;;;;;;5049407;28;20093;-88
2022/11/25 09:09:42;;;;;;;0.20;0.20;;;10.10;99.90;;;;;;5033159;28;20082;-87
2022/11/25 09:12:09;;;;;;;1.17;1.08;;;10.20;99.90;;;;;;5049088;28;20036;-88
2022/11/25 09:14:35;;;;;;;;;;;10.20;99.90;;;;;;5031246;28;20025;-87
2022/11/25 09:17:00;;;;;;;0.20;0.20;;;10.20;99.90;;;;;;5031608;28;19962;-89
2022/11/25 09:19:27;;;;;;;0.10;0.10;;;10.10;99.90;;;;;;5049492;28;20021;-89
2022/11/25 09:21:53;;;;;;;0.10;0.10;;;10.10;99.90;;;;;;5031100;28;20040;-89
2022/11/25 09:24:19;;;;;;;0.22;0.22;;;9.90;99.90;;;;;;5049938;28;20040;-89
2022/11/25 09:26:44;;;;;;;1.02;0.57;;;10.00;99.90;;;;;;5049054;28;20104;-89
2022/11/25 09:29:12;;;;;;;0.15;0.15;;;10.10;99.90;;;;;;5064048;28;20029;-89
2022/11/25 09:31:38;;;;;;;0.40;0.40;;;10.30;99.90;;;;;;5059351;28;20037;-89
2022/11/25 09:34:04;;;;;;;2.43;2.23;;;10.50;99.90;;;;;;5030885;28;20090;-88
2022/11/25 09:36:30;;;;;;;2.63;2.42;;;10.70;99.90;;;;;;5048503;28;20099;-89
2022/11/25 09:38:55;;;;;;;0.20;0.20;;;11.00;99.90;;;;;;5054854;28;20458;-88
2022/11/25 09:48:18;;;;;;;0.20;0.20;;;11.50;99.90;;;;;;5046756;28;20073;-88
2022/11/25 09:51:29;;;;;;;2.17;0.35;;;11.60;99.90;;;;;;5029590;28;20025;-87
2022/11/25 09:54:14;;;;;;;0.50;0.50;;;11.30;99.90;;;;;;5015408;28;20037;-86
2022/11/25 09:57:09;;;;;;;0.63;0.63;;;11.40;99.90;;;;;;5046489;28;20606;-87
2022/11/25 10:00:01;;;;;;;0.43;0.43;;;11.40;99.90;;;;;;4998651;28;20042;-87
2022/11/25 10:02:38;;;;;;;0.10;0.10;;;11.30;99.90;;;;;;5043283;28;20328;-87
2022/11/25 10:05:12;;;;;;;0.10;0.10;;;11.30;99.90;;;;;;5050335;28;20064;-87
2022/11/25 10:07:49;;;;;;;0.22;0.22;;;11.30;99.90;;;;;;5047110;28;20029;-87
2022/11/25 10:10:26;;;;;;;0.20;0.20;;;11.30;99.90;;;;;;5046272;28;20033;-87
2022/11/25 10:12:55;;;;;;;0.13;0.13;;;11.30;99.90;;;;;;5029504;28;20036;-87
2022/11/25 10:15:31;;;;;;;0.60;0.57;;;11.30;99.90;;;;;;5029300;28;20041;-87
2022/11/25 10:18:02;;;;;;;0.20;0.20;;;11.30;99.90;;;;;;5045518;28;20053;-87
2022/11/25 10:20:34;;;;;;;0.40;0.40;;;11.30;99.90;;;;;;5047852;28;20102;-86
2022/11/25 10:23:07;;;;;;;0.93;0.50;;;11.30;99.90;;;;;;5029203;28;20033;-87
2022/11/25 10:25:45;;;;;;;0.20;0.20;;;11.20;99.90;;;;;;5027835;28;20029;-86
2022/11/25 10:28:21;;;;;;;0.57;0.52;;;11.00;99.90;;;;;;5046653;28;20787;-87
2022/11/25 10:31:13;;;;;;;0.30;0.30;;;10.90;99.90;;;;;;5024225;28;20032;-87
2022/11/25 10:33:52;;;;;;;0.75;0.43;;;10.80;99.90;;;;;;5045134;28;20032;-86
2022/11/25 10:36:23;;;;;;;0.40;0.40;;;10.70;99.90;;;;;;5047353;28;20032;-87
2022/11/25 10:39:00;;;;;;;0.20;0.20;;;10.60;99.90;;;;;;5047624;28;20029;-86
2022/11/25 10:41:30;;;;;;;1.00;1.00;;;10.60;99.90;;;;;;5043311;28;20040;-87
2022/11/25 10:43:56;;;;;;;0.17;0.17;;;10.80;99.90;;;;;;5042111;28;20029;-86
2022/11/25 10:46:40;;;;;;;0.20;0.20;;;10.80;99.90;;;;;;5028670;28;20079;-87
2022/11/25 10:49:14;;;;;;;0.50;0.50;;;10.90;99.90;;;;;;5044514;28;20055;-86
2022/11/25 10:51:46;;;;;;;1.25;0.80;;;10.90;99.90;;;;;;5029346;28;20045;-86
2022/11/25 10:54:23;;;;;;;0.10;0.10;;;10.90;99.90;;;;;;5046986;28;20044;-85
2022/11/25 10:56:58;;;;;;;1.20;1.02;;;10.80;99.90;;;;;;5027302;28;20041;-86
2022/11/25 10:59:30;;;;;;;0.20;0.20;;;10.90;99.90;;;;;;5028897;28;20032;-86
2022/11/25 11:02:27;;;;;;;0.50;0.50;;;10.90;99.90;;;;;;5049533;28;20033;-87
2022/11/25 11:05:07;;;;;;;2.17;0.30;;;11.00;99.90;;;;;;5030446;28;20753;-86
2022/11/25 11:07:37;;;;;;;0.10;0.10;;;10.90;99.90;;;;;;5046997;28;20035;-86
2022/11/25 11:10:23;;;;;;;0.57;0.57;;;10.80;99.90;;;;;;5046962;28;20532;-86
2022/11/25 11:13:05;;;;;;;3.13;0.63;;;10.60;99.90;;;;;;5047098;28;20036;-86
2022/11/25 11:15:39;;;;;;;0.52;0.47;;;10.40;99.90;;;;;;5029364;28;20025;-86
2022/11/25 11:18:37;;;;;;;0.20;0.20;;;10.30;99.90;;;;;;5045975;28;20479;-86
2022/11/25 11:21:05;;;;;;;0.43;0.43;;;10.40;99.90;;;;;;5051249;28;20040;-86
2022/11/25 11:23:50;;;;;;;0.10;0.10;;;10.40;99.90;;;;;;5050833;28;20040;-88
2022/11/25 11:26:34;;;;;;;0.15;0.15;;;10.30;99.90;;;;;;5050294;28;20048;-88
2022/11/25 11:29:17;;;;;;;8.13;2.95;;;10.20;99.90;;;;;;5050982;28;20033;-87
2022/11/25 11:31:58;;;;;;;0.57;0.57;;;10.20;99.90;;;;;;5050174;28;20025;-89
2022/11/25 11:34:48;;;;;;;3.08;2.50;;;10.10;99.90;;;;;;5052412;28;20706;-88
2022/11/25 11:37:25;;;;;;;1.85;1.73;;;10.20;99.90;;;;;;5066643;28;20021;-88
2022/11/25 11:40:02;;;;;;;6.53;3.75;;;10.10;99.90;;;;;;5043269;28;20037;-88
2022/11/25 11:42:56;;;;;;;1.98;1.88;;;10.20;99.90;;;;;;5047775;28;20118;-88
2022/11/25 11:45:24;;;;;;;12.05;2.22;;;10.30;99.90;;;;;;5047510;28;20028;-88
2022/11/25 11:48:02;;;;;;;0.57;0.35;;;10.30;99.90;;;;;;5065608;28;20086;-88
2022/11/25 11:50:34;;;;;;;1.35;1.33;;;10.20;99.90;;;;;;5059740;28;20071;-88
2022/11/25 11:53:24;;;;;;;0.32;0.32;;;10.20;99.90;;;;;;5032123;28;20021;-88
2022/11/25 11:56:04;;;;;;;0.15;0.15;;;10.20;99.90;;;;;;5045437;28;20131;-88
2022/11/25 11:58:38;;;;;;;0.55;0.55;;;10.30;99.90;;;;;;5050889;28;20053;-88
2022/11/25 12:01:13;;;;;;;0.82;0.57;;;10.30;99.90;;;;;;5051051;28;20040;-88
2022/11/25 12:03:54;;;;;;;1.88;1.75;;;10.20;99.90;;;;;;5050605;28;20132;-87
2022/11/25 12:06:23;;;;;;;0.93;0.93;;;10.20;99.90;;;;;;5050798;28;20116;-88
2022/11/25 12:08:58;;;;;;;5.15;2.30;;;10.10;99.90;;;;;;5026541;28;20025;-88
2022/11/25 12:11:31;;;;;;;1.10;1.00;;;10.00;99.90;;;;;;5045719;28;20044;-87
2022/11/25 12:14:13;;;;;;;4.18;2.63;;;10.00;99.90;;;;;;5032406;28;20033;-87
2022/11/25 12:16:54;;;;;;;0.20;0.20;;;10.00;99.90;;;;;;5064887;28;20028;-85
2022/11/25 12:19:32;;;;;;;0.10;0.10;;;10.10;99.90;;;;;;5049814;28;20554;-87
2022/11/25 12:22:34;;;;;;;0.45;0.45;;;9.90;99.90;;;;;;5050345;28;20025;-87
2022/11/25 12:25:10;;;;;;;0.50;0.50;;;9.90;99.90;;;;;;5049501;28;20100;-87
2022/11/25 12:27:46;;;;;;;0.20;0.20;;;9.80;99.90;;;;;;5049820;28;20560;-88
2022/11/25 12:30:16;;;;;;;0.10;0.10;;;9.80;99.90;;;;;;5031658;28;20056;-86
2022/11/25 12:32:57;;;;;;;2.80;1.40;;;9.50;99.90;;;;;;5031858;28;20064;-88
2022/11/25 12:35:37;;;;;;;0.20;0.20;;;9.60;99.90;;;;;;5047551;28;20025;-87
2022/11/25 12:38:03;;;;;;;0.10;0.10;;;9.70;99.90;;;;;;5031355;28;20036;-88
2022/11/25 12:40:51;;;;;;;0.98;0.57;;;9.80;99.90;;;;;;5049436;28;20029;-87
2022/11/25 12:43:43;;;;;;;0.10;0.10;;;10.00;99.90;;;;;;5048218;28;20686;-88
2022/11/25 12:46:33;;;;;;;0.20;0.20;;;10.20;99.90;;;;;;5031266;28;20068;-87
2022/11/25 12:49:00;;;;;;;0.10;0.10;;;10.20;99.90;;;;;;5056658;28;20134;-87
2022/11/25 12:51:37;;;;;;;0.10;0.10;;;10.20;99.90;;;;;;5031841;28;21539;-87
2022/11/25 12:54:05;;;;;;;0.10;0.10;;;10.30;99.90;;;;;;5049831;28;20829;-86
2022/11/25 12:57:04;;;;;;;0.32;0.30;;;10.30;99.90;;;;;;5048954;28;20032;-87
2022/11/25 12:59:32;;;;;;;0.13;0.13;;;10.20;99.90;;;;;;5042237;28;20037;-87
2022/11/25 13:02:13;;;;;;;0.10;0.10;;;10.10;99.90;;;;;;5048356;28;20048;-87
2022/11/25 13:05:11;;;;;;;0.20;0.20;;;10.30;99.90;;;;;;5033371;28;20025;-88
2022/11/25 13:08:12;;;;;;;0.10;0.10;;;10.40;99.90;;;;;;5045226;28;20029;-88
2022/11/25 13:11:20;;;;;;;0.10;0.10;;;10.30;99.90;;;;;;5043692;28;20178;-88
2022/11/25 13:14:08;;;;;;;0.08;0.08;;;10.50;99.90;;;;;;5042644;28;20029;-87
2022/11/25 13:16:34;;;;;;;0.10;0.10;;;10.40;99.90;;;;;;5054629;28;20044;-88
2022/11/25 13:19:00;;;;;;;8.35;0.55;;;10.40;99.90;;;;;;5026524;28;20432;-88
2022/11/25 13:21:27;;;;;;;0.10;0.10;;;10.50;99.90;;;;;;5031208;28;20407;-88
2022/11/25 13:23:56;;;;;;;0.10;0.10;;;10.50;99.90;;;;;;5053580;28;20033;-87